Terminal Aerodrome Forecast
Issued by NWS

Home | Current Version | Previous Version | Text Only | Print | Product List | Glossary On
Versions: 1 2 3 4 5 6 7 8 9 10 11 12 13 14 15
096
FTUS44 KBMX 072340
TAFEET
TAF
KEET 072340Z 0800/0824 31005KT P6SM OVC020
     FM080400 32005KT P6SM OVC025
     FM080900 34005KT P6SM OVC050
     FM081500 35010G17KT P6SM BKN200=

USA.gov is the U.S. government's official web portal to all federal, state and local government web resources and services.